Date,TemperatureHighF,TemperatureAvgF,TemperatureLowF,DewpointHighF,DewpointAvgF,DewpointLowF,HumidityHigh,HumidityAvg,HumidityLow,PressureMaxIn,PressureMinIn,WindSpeedMaxMPH,WindSpeedAvgMPH,GustSpeedMaxMPH,PrecipitationSumIn
2013-6-1,79.9,69.6,60.2,69.0,63.2,58.0,94,81,63,30.05,29.97,15,3,18,0.00
2013-6-2,73.3,66.6,62.8,67.0,62.8,61.0,94,87,78,29.99,29.88,10,3,18,0.00
2013-6-3,67.8,64.2,61.9,67.0,63.0,61.0,97,95,93,29.91,29.83,10,2,18,0.88
2013-6-4,70.5,61.5,50.2,61.0,50.5,44.0,97,69,44,30.09,29.82,8,3,15,0.88
2013-6-5,69.7,59.0,46.0,55.0,49.2,45.0,97,73,43,30.21,30.09,6,1,9,0.00
2013-6-6,70.6,60.5,46.4,60.0,53.2,45.0,96,78,59,30.22,30.10,8,1,9,0.00
2013-6-7,64.7,59.4,56.3,64.0,57.5,52.0,97,93,82,30.11,29.78,8,1,15,1.38
2013-6-8,70.1,64.5,59.8,65.0,61.5,57.0,97,90,75,30.03,29.57,14,4,21,0.26
2013-6-9,74.9,66.8,55.6,62.0,58.5,54.0,97,76,57,30.19,30.03,10,3,16,0.26
2013-6-10,74.9,64.1,54.7,64.0,59.4,53.0,96,85,61,30.21,30.00,4,1,7,0.40
2013-6-11,72.9,65.8,59.3,68.0,63.7,58.0,97,93,82,29.99,29.58,13,3,20,0.42
2013-6-12,70.7,65.5,55.9,59.0,56.4,53.0,93,73,61,29.82,29.62,13,4,18,0.00
2013-6-13,67.0,58.7,48.8,60.0,54.1,47.0,97,85,72,29.84,29.59,6,1,12,0.12
2013-6-14,65.2,57.6,53.0,57.0,53.0,50.0,95,85,66,29.78,29.54,12,4,24,0.80
2013-6-15,75.8,67.4,59.4,59.0,53.9,48.0,91,64,38,29.99,29.78,10,3,14,0.80
2013-6-16,76.1,66.2,54.5,64.0,58.6,52.0,96,78,45,29.99,29.80,16,3,20,0.00
2013-6-17,79.2,69.3,62.5,68.0,63.4,60.0,92,82,66,29.95,29.82,9,2,17,0.00
2013-6-18,78.6,65.7,56.3,70.0,61.9,55.0,96,88,67,29.94,29.88,6,1,12,0.00
2013-6-19,72.9,64.0,53.6,60.0,54.6,51.0,95,74,50,30.18,29.85,10,3,15,0.04
2013-6-20,73.3,62.5,47.6,63.0,55.5,46.0,97,80,50,30.32,30.18,7,1,13,0.00
2013-6-21,73.8,65.1,52.6,58.0,53.2,49.0,95,68,45,30.32,30.27,14,1,14,0.00
2013-6-22,75.5,67.4,60.1,63.0,59.1,54.0,95,76,51,30.29,30.20,7,2,14,0.00
2013-6-23,79.2,70.8,61.8,70.0,66.1,60.0,95,85,68,30.22,30.11,7,2,19,0.00
2013-6-24,83.2,74.1,67.9,74.0,69.5,66.0,96,86,69,30.09,29.93,11,4,21,0.00
2013-6-25,85.7,74.8,64.7,73.0,67.4,63.0,94,78,59,29.96,29.79,11,3,16,0.00
2013-6-26,83.0,74.4,68.1,74.0,68.8,66.0,94,83,70,29.86,29.76,14,4,21,0.01
2013-6-27,73.3,69.2,65.0,70.0,66.9,63.0,96,92,86,29.86,29.78,3,1,9,0.01
2013-6-28,73.6,68.5,66.8,73.0,67.6,66.0,97,96,93,29.77,29.59,6,2,13,0.21
2013-6-29,73.1,68.9,66.7,72.0,67.7,66.0,98,95,89,29.79,29.58,5,1,12,0.30
2013-6-30,75.2,69.7,67.3,71.0,68.0,66.0,97,94,81,30.00,29.79,6,1,10,0.04